Time;durP1;ratioP1;P1;durP2;ratioP2;P2;SDS_P1;SDS_P2;PMS_P1;PMS_P2;Temp;Humidity;BMP_temperature;BMP_pressure;BME280_temperature;BME280_humidity;BME280_pressure;Samples;Min_cycle;Max_cycle;Signal;HPM_P1;HPM_P2
2021/06/24 00:02:08;;;;;;;3.67;2.20;;;;;;;13.51;100.00;94072.94;5138608;27;20209;-80
2021/06/24 00:04:36;;;;;;;4.75;2.30;;;;;;;13.41;100.00;94076.00;5137411;27;20332;-81
2021/06/24 00:07:03;;;;;;;15.05;2.33;;;;;;;13.36;100.00;94067.19;5137382;27;20197;-80
2021/06/24 00:09:29;;;;;;;4.95;2.03;;;;;;;13.30;100.00;94061.69;5137244;27;20247;-79
2021/06/24 00:11:56;;;;;;;2.73;1.90;;;;;;;13.24;100.00;94064.34;5137724;27;20219;-80
2021/06/24 00:14:22;;;;;;;3.13;2.20;;;;;;;13.19;100.00;94057.13;5137663;27;20201;-81
2021/06/24 00:16:51;;;;;;;5.40;2.23;;;;;;;13.13;100.00;94064.00;5137118;27;20291;-80
2021/06/24 00:19:17;;;;;;;2.47;1.93;;;;;;;13.08;100.00;94076.94;5137042;27;20693;-80
2021/06/24 00:21:45;;;;;;;3.30;2.07;;;;;;;13.05;100.00;94081.78;5137319;27;20193;-80
2021/06/24 00:24:12;;;;;;;5.50;2.20;;;;;;;12.98;100.00;94081.03;5137059;27;20203;-80
2021/06/24 00:26:38;;;;;;;4.00;2.67;;;;;;;12.94;100.00;94078.81;5136348;27;20323;-80
2021/06/24 00:29:04;;;;;;;3.23;2.07;;;;;;;12.89;100.00;94075.19;5135653;28;20201;-80
2021/06/24 00:31:31;;;;;;;2.70;1.87;;;;;;;12.82;100.00;94072.59;5135703;28;20203;-80
2021/06/24 00:33:57;;;;;;;2.77;2.30;;;;;;;12.89;100.00;94057.66;5135656;28;20205;-78
2021/06/24 00:36:24;;;;;;;6.13;2.20;;;;;;;12.87;100.00;94054.47;5135584;28;20196;-80
2021/06/24 00:38:52;;;;;;;12.17;2.37;;;;;;;12.85;100.00;94059.06;5135363;28;20197;-80
2021/06/24 00:41:19;;;;;;;3.53;2.37;;;;;;;12.79;100.00;94052.06;5135466;28;20663;-79
2021/06/24 00:43:46;;;;;;;2.13;1.90;;;;;;;12.76;100.00;94070.81;5135295;27;20208;-79
2021/06/24 00:46:12;;;;;;;4.87;2.40;;;;;;;12.78;100.00;94071.41;5135975;28;20232;-80
2021/06/24 00:48:39;;;;;;;4.63;2.73;;;;;;;12.80;100.00;94066.75;5139123;28;20197;-81
2021/06/24 00:51:05;;;;;;;3.17;2.23;;;;;;;12.72;100.00;94062.56;5135821;28;20649;-79
2021/06/24 00:53:32;;;;;;;5.43;2.07;;;;;;;12.64;100.00;94054.09;5135550;28;20203;-79
2021/06/24 00:56:00;;;;;;;4.97;2.20;;;;;;;12.59;100.00;94060.78;5135560;28;20197;-80
2021/06/24 00:58:27;;;;;;;4.17;2.40;;;;;;;12.50;100.00;94059.38;5136177;28;20555;-80
2021/06/24 01:00:55;;;;;;;5.90;2.37;;;;;;;12.48;100.00;94056.16;5135736;28;20203;-80
2021/06/24 01:03:22;;;;;;;7.18;3.00;;;;;;;12.45;100.00;94045.31;5134740;28;20474;-79
2021/06/24 01:05:49;;;;;;;3.33;2.60;;;;;;;12.38;100.00;94040.09;5134923;28;20224;-78
2021/06/24 01:08:18;;;;;;;5.67;2.47;;;;;;;12.42;100.00;94036.03;5135104;28;20679;-79
2021/06/24 01:10:45;;;;;;;3.53;2.67;;;;;;;12.42;100.00;94025.56;5135204;28;20218;-78
2021/06/24 01:13:14;;;;;;;4.30;2.57;;;;;;;12.44;100.00;94023.56;5135145;28;20197;-78
2021/06/24 01:15:44;;;;;;;5.07;2.70;;;;;;;12.40;100.00;94019.72;5135288;28;20205;-79
2021/06/24 01:18:11;;;;;;;6.33;2.90;;;;;;;12.44;100.00;94018.31;5135568;28;20201;-79
2021/06/24 01:20:39;;;;;;;8.97;2.87;;;;;;;12.46;100.00;94015.50;5135175;28;20196;-78
2021/06/24 01:23:07;;;;;;;4.73;2.40;;;;;;;12.45;100.00;94009.44;5135616;28;20193;-78
2021/06/24 01:25:38;;;;;;;10.13;3.20;;;;;;;12.43;100.00;94011.47;5097258;28;1065200;-80
2021/06/24 01:28:07;;;;;;;4.70;2.67;;;;;;;12.46;100.00;94005.81;5137202;27;20212;-79
2021/06/24 01:30:35;;;;;;;4.17;2.87;;;;;;;12.48;100.00;94003.78;5136288;27;20743;-79
2021/06/24 01:33:03;;;;;;;3.57;2.63;;;;;;;12.46;100.00;93997.97;5135534;27;20651;-80
2021/06/24 01:35:30;;;;;;;4.93;2.93;;;;;;;12.49;100.00;94000.19;5136496;27;20559;-80
2021/06/24 01:37:58;;;;;;;5.83;2.50;;;;;;;12.48;100.00;93992.53;5135981;27;20562;-79
2021/06/24 01:40:25;;;;;;;4.20;2.67;;;;;;;12.49;100.00;93994.94;5135824;27;20193;-78
2021/06/24 01:42:53;;;;;;;3.63;2.40;;;;;;;12.46;100.00;93992.72;5135520;27;20197;-78
2021/06/24 01:45:20;;;;;;;8.07;2.50;;;;;;;12.43;100.00;93995.75;5135357;27;20216;-78
2021/06/24 01:47:47;;;;;;;5.93;2.83;;;;;;;12.49;100.00;93984.47;5135320;27;20204;-78
2021/06/24 01:50:14;;;;;;;7.23;2.80;;;;;;;12.47;100.00;93986.47;5135055;27;20226;-79
2021/06/24 01:52:45;;;;;;;5.80;2.77;;;;;;;12.45;100.00;93988.50;5135078;27;20257;-78
2021/06/24 01:55:14;;;;;;;3.47;2.40;;;;;;;12.43;100.00;93977.44;5134592;27;20204;-77
2021/06/24 01:57:40;;;;;;;4.10;2.40;;;;;;;12.42;100.00;93978.44;5135173;27;20208;-78
2021/06/24 02:00:11;;;;;;;7.73;2.60;;;;;;;12.43;100.00;93977.44;5135075;27;20197;-78
2021/06/24 02:02:38;;;;;;;6.57;2.83;;;;;;;12.49;100.00;93975.78;5135160;27;20204;-77
2021/06/24 02:05:06;;;;;;;5.67;2.50;;;;;;;12.46;100.00;93963.94;5135155;27;20238;-78
2021/06/24 02:07:33;;;;;;;7.40;2.60;;;;;;;12.44;100.00;93955.47;5135661;27;20232;-79
2021/06/24 02:10:00;;;;;;;7.77;2.67;;;;;;;12.45;100.00;93957.06;5135753;27;20287;-79
2021/06/24 02:12:26;;;;;;;3.83;2.90;;;;;;;12.44;100.00;93950.25;5136429;27;20208;-80
2021/06/24 02:14:53;;;;;;;4.83;3.00;;;;;;;12.49;100.00;93953.03;5135615;27;20204;-79
2021/06/24 02:17:20;;;;;;;4.20;2.80;;;;;;;12.51;100.00;93955.47;5134950;27;20192;-79
2021/06/24 02:19:47;;;;;;;4.60;3.17;;;;;;;12.51;100.00;93951.00;5135062;27;20208;-78
2021/06/24 02:22:16;;;;;;;4.70;2.60;;;;;;;12.51;100.00;93951.00;5134713;27;20532;-77
2021/06/24 02:24:42;;;;;;;4.47;3.10;;;;;;;12.47;100.00;93935.91;5134769;27;20204;-77
2021/06/24 02:27:09;;;;;;;3.97;2.77;;;;;;;12.46;100.00;93932.50;5134285;27;20240;-78
2021/06/24 02:29:35;;;;;;;4.60;3.13;;;;;;;12.41;100.00;93948.03;5134745;27;20429;-80
2021/06/24 02:32:02;;;;;;;3.50;2.57;;;;;;;12.33;100.00;93943.81;5134524;27;20200;-78
2021/06/24 02:34:29;;;;;;;5.60;2.60;;;;;;;12.26;100.00;93952.69;5134617;27;20559;-80
2021/06/24 02:36:56;;;;;;;7.00;2.90;;;;;;;12.31;100.00;93948.47;5134647;27;20205;-80
2021/06/24 02:39:23;;;;;;;6.80;2.80;;;;;;;12.31;100.00;93940.63;5134396;27;20555;-80
2021/06/24 02:41:50;;;;;;;5.77;3.00;;;;;;;12.32;100.00;93937.00;5134386;27;20204;-80
2021/06/24 02:44:16;;;;;;;5.20;3.00;;;;;;;12.35;100.00;93936.56;5134811;27;20666;-81
2021/06/24 02:46:43;;;;;;;4.43;3.40;;;;;;;12.35;100.00;93933.94;5136215;27;20579;-80
2021/06/24 02:49:09;;;;;;;7.10;3.60;;;;;;;12.38;100.00;93930.13;5135419;27;20212;-79
2021/06/24 02:51:37;;;;;;;5.03;3.70;;;;;;;12.39;100.00;93916.03;5135175;27;20208;-80
2021/06/24 02:54:04;;;;;;;4.17;3.07;;;;;;;12.44;100.00;93924.06;5135300;27;20200;-79
2021/06/24 02:56:33;;;;;;;5.93;3.43;;;;;;;12.48;100.00;93920.00;5135448;27;20201;-79
2021/06/24 02:58:59;;;;;;;4.90;3.13;;;;;;;12.47;100.00;93910.53;5135860;27;20201;-81
2021/06/24 03:01:26;;;;;;;6.67;3.90;;;;;;;12.46;100.00;93906.31;5134189;27;20196;-79
2021/06/24 03:03:52;;;;;;;4.50;3.10;;;;;;;12.47;100.00;93904.50;5134139;27;20279;-78
2021/06/24 03:06:19;;;;;;;5.27;3.20;;;;;;;12.42;100.00;93907.72;5133937;27;20229;-79
2021/06/24 03:08:47;;;;;;;5.10;3.03;;;;;;;12.44;100.00;93905.72;5133830;27;20212;-80
2021/06/24 03:11:14;;;;;;;6.88;3.40;;;;;;;12.39;100.00;93922.06;5133571;27;20444;-79
2021/06/24 03:13:40;;;;;;;4.63;3.00;;;;;;;12.36;100.00;93916.44;5134456;27;20675;-79
2021/06/24 03:16:07;;;;;;;4.33;2.70;;;;;;;12.35;100.00;93920.06;5134390;27;20205;-78
2021/06/24 03:18:34;;;;;;;6.63;3.07;;;;;;;12.32;100.00;93920.47;5133797;28;20659;-78
2021/06/24 03:21:00;;;;;;;4.37;2.70;;;;;;;12.31;100.00;93924.13;5134567;28;20260;-79
2021/06/24 03:23:26;;;;;;;7.00;2.93;;;;;;;12.26;100.00;93929.13;5135589;28;20204;-79
2021/06/24 03:25:55;;;;;;;5.97;2.50;;;;;;;12.17;100.00;93921.53;5135557;28;20232;-79
2021/06/24 03:28:22;;;;;;;5.57;2.53;;;;;;;12.07;100.00;93934.22;5136000;28;20204;-80
2021/06/24 03:30:49;;;;;;;4.43;2.43;;;;;;;11.96;100.00;93940.13;5134847;28;20291;-78
2021/06/24 03:33:15;;;;;;;4.63;2.60;;;;;;;11.86;100.00;93935.28;5135811;28;20200;-79
2021/06/24 03:35:44;;;;;;;3.37;2.37;;;;;;;11.76;100.00;93933.06;5138602;28;20207;-80
2021/06/24 03:38:11;;;;;;;6.47;3.27;;;;;;;11.76;100.00;93927.03;5142374;28;20196;-80
2021/06/24 03:40:38;;;;;;;3.87;2.30;;;;;;;11.74;100.00;93929.84;5136014;28;20200;-80
2021/06/24 03:43:05;;;;;;;3.00;2.23;;;;;;;11.70;100.00;93928.63;5137412;28;20200;-80
2021/06/24 03:45:32;;;;;;;2.97;2.30;;;;;;;11.68;100.00;93930.66;5137500;28;20232;-80
2021/06/24 03:47:59;;;;;;;4.63;2.20;;;;;;;11.59;100.00;93934.47;5134082;28;20643;-80
2021/06/24 03:50:26;;;;;;;3.33;2.40;;;;;;;11.55;100.00;93930.69;5135471;28;20201;-79
2021/06/24 03:52:52;;;;;;;6.50;3.10;;;;;;;11.55;100.00;93922.84;5135716;28;20441;-80
2021/06/24 03:55:35;;;;;;;3.57;2.33;;;;;;;11.60;100.00;93926.44;5133916;28;20197;-80
2021/06/24 03:58:01;;;;;;;5.57;3.63;;;;;;;11.63;100.00;93920.00;5134857;28;20546;-80
2021/06/24 04:00:29;;;;;;;5.23;2.93;;;;;;;11.61;100.00;93922.03;5133606;28;20197;-79
2021/06/24 04:02:56;;;;;;;4.30;2.80;;;;;;;11.66;100.00;93919.59;5133516;28;20201;-78
2021/06/24 04:05:22;;;;;;;4.90;2.70;;;;;;;11.68;100.00;93909.75;5134230;28;20193;-78
2021/06/24 04:07:49;;;;;;;4.57;3.00;;;;;;;11.68;100.00;93907.13;5134621;28;20197;-79
2021/06/24 04:10:15;;;;;;;5.43;2.93;;;;;;;11.66;100.00;93911.75;5134500;28;20197;-78
2021/06/24 04:12:42;;;;;;;4.27;3.10;;;;;;;11.66;100.00;93903.91;5134422;28;20222;-79
2021/06/24 04:15:09;;;;;;;4.50;3.03;;;;;;;11.69;100.00;93900.06;5134405;28;20204;-79
2021/06/24 04:17:37;;;;;;;4.23;3.20;;;;;;;11.73;100.00;93909.94;5133899;27;20205;-81
2021/06/24 04:20:04;;;;;;;4.67;3.10;;;;;;;11.77;100.00;93903.28;5139136;27;20197;-80
2021/06/24 04:22:31;;;;;;;9.57;3.77;;;;;;;11.82;100.00;93907.91;5137854;27;20200;-81
2021/06/24 04:24:57;;;;;;;4.23;3.23;;;;;;;11.87;100.00;93912.53;5138370;27;20544;-80
2021/06/24 04:27:24;;;;;;;5.53;3.17;;;;;;;11.89;100.00;93907.88;5137980;27;20591;-79
2021/06/24 04:29:50;;;;;;;6.30;3.73;;;;;;;11.89;100.00;93910.50;5137703;27;20205;-80
2021/06/24 04:32:17;;;;;;;6.77;3.80;;;;;;;11.87;100.00;93908.09;5138951;27;20205;-81
2021/06/24 04:34:45;;;;;;;6.80;3.40;;;;;;;11.89;100.00;93900.84;5140362;27;20200;-79
2021/06/24 04:37:12;;;;;;;5.80;3.57;;;;;;;11.97;100.00;93900.66;5137308;27;20204;-80
2021/06/24 04:39:38;;;;;;;4.73;3.37;;;;;;;11.96;100.00;93898.25;5138274;27;20200;-79
2021/06/24 04:42:05;;;;;;;4.60;3.33;;;;;;;11.99;100.00;93888.19;5137863;27;20197;-79
2021/06/24 04:44:31;;;;;;;5.60;3.57;;;;;;;12.03;100.00;93891.19;5137857;27;20192;-80
2021/06/24 04:46:58;;;;;;;5.30;3.10;;;;;;;12.10;100.00;93893.78;5137815;27;20228;-79
2021/06/24 04:49:24;;;;;;;4.37;3.20;;;;;;;12.13;100.00;93894.16;5138942;27;20201;-79
2021/06/24 04:51:52;;;;;;;3.80;2.80;;;;;;;12.19;100.00;93889.91;5136819;27;20226;-79
2021/06/24 04:54:19;;;;;;;3.23;2.53;;;;;;;12.21;100.00;93893.94;5137085;27;20205;-79
2021/06/24 04:56:45;;;;;;;3.87;2.57;;;;;;;12.27;100.00;93896.72;5137104;27;20212;-80
2021/06/24 04:59:12;;;;;;;4.57;2.00;;;;;;;12.26;100.00;93895.94;5137708;27;20291;-80
2021/06/24 05:01:38;;;;;;;3.73;1.90;;;;;;;12.26;100.00;93890.69;5138796;27;20204;-80
2021/06/24 05:04:05;;;;;;;5.07;2.00;;;;;;;12.32;100.00;93891.66;5137891;27;20196;-80
2021/06/24 05:06:31;;;;;;;4.80;1.90;;;;;;;12.41;100.00;93887.81;5138781;27;20224;-80
2021/06/24 05:08:59;;;;;;;4.60;2.23;;;;;;;12.47;100.00;93889.56;5136580;27;20536;-80
2021/06/24 05:11:26;;;;;;;2.17;1.90;;;;;;;12.56;100.00;93900.63;5138177;27;20284;-79
2021/06/24 05:13:53;;;;;;;3.13;2.10;;;;;;;12.63;100.00;93895.38;5139929;27;20196;-79
2021/06/24 05:16:19;;;;;;;2.77;2.20;;;;;;;12.65;100.00;93904.59;5139088;27;20283;-78
2021/06/24 05:18:46;;;;;;;2.73;2.00;;;;;;;12.81;100.00;93892.84;5136818;27;20207;-79
2021/06/24 05:21:13;;;;;;;4.27;2.37;;;;;;;13.00;100.00;93896.31;5137036;27;20200;-79
2021/06/24 05:23:39;;;;;;;3.07;2.23;;;;;;;13.06;100.00;93903.34;5146974;27;20260;-79
2021/06/24 05:26:07;;;;;;;3.63;2.60;;;;;;;13.25;100.00;93898.97;5149485;27;20340;-77
2021/06/24 05:28:33;;;;;;;2.45;2.08;;;;;;;13.58;100.00;93892.69;5137442;27;20193;-79
2021/06/24 05:31:00;;;;;;;2.57;1.80;;;;;;;13.73;100.00;93892.34;5139191;27;20674;-80
2021/06/24 05:33:27;;;;;;;2.88;2.45;;;;;;;13.75;100.00;93892.13;5138072;27;20677;-79
2021/06/24 05:35:53;;;;;;;4.55;2.00;;;;;;;13.97;100.00;93895.13;5138197;27;20208;-78
2021/06/24 05:38:20;;;;;;;2.53;2.08;;;;;;;14.36;100.00;93887.84;5138204;27;20201;-80
2021/06/24 05:40:48;;;;;;;3.20;1.40;;;;;;;15.68;100.00;93894.81;5136273;27;20201;-79
2021/06/24 05:43:17;;;;;;;2.17;1.20;;;;;;;17.46;100.00;93896.94;5135883;27;20199;-80
2021/06/24 05:45:44;;;;;;;0.80;0.70;;;;;;;18.85;100.00;93896.97;5140259;27;20227;-78
2021/06/24 05:48:10;;;;;;;1.65;0.88;;;;;;;19.51;100.00;93898.63;5138283;27;20221;-79
2021/06/24 05:50:38;;;;;;;3.10;0.80;;;;;;;19.42;100.00;93895.66;5135541;27;20291;-79
2021/06/24 05:53:05;;;;;;;0.77;0.32;;;;;;;20.21;100.00;93902.03;5137607;27;20200;-79
2021/06/24 05:58:14;;;;;;;0.75;0.57;;;;;;;21.87;100.00;93904.06;5132896;27;20284;-80
2021/06/24 06:00:43;;;;;;;1.05;0.40;;;;;;;22.45;85.20;93901.81;5136644;27;20460;-80
2021/06/24 06:03:10;;;;;;;0.43;0.35;;;;;;;22.86;80.59;93898.97;5138003;27;20563;-79
2021/06/24 06:05:37;;;;;;;2.15;0.40;;;;;;;22.82;77.47;93891.84;5144680;27;20200;-81
2021/06/24 06:08:06;;;;;;;0.77;0.40;;;;;;;22.42;78.47;93893.59;5148779;27;20236;-80
2021/06/24 06:10:32;;;;;;;5.00;0.60;;;;;;;22.98;75.74;93900.53;5145018;27;20204;-79
2021/06/24 06:12:59;;;;;;;1.08;0.52;;;;;;;23.79;70.99;93893.84;5144203;27;20215;-80
2021/06/24 06:15:25;;;;;;;2.92;0.40;;;;;;;24.13;68.97;93893.03;5141885;27;20197;-79
2021/06/24 06:17:53;;;;;;;0.50;0.30;;;;;;;23.22;72.77;93884.72;5141350;27;20541;-80
2021/06/24 06:20:20;;;;;;;0.52;0.43;;;;;;;21.78;79.42;93883.34;5141151;27;20560;-80
2021/06/24 06:22:47;;;;;;;0.57;0.45;;;;;;;21.09;85.62;93886.47;5137107;27;20201;-77
2021/06/24 06:25:14;;;;;;;2.63;0.60;;;;;;;20.48;89.50;93891.31;5138363;27;20591;-79
2021/06/24 06:27:41;;;;;;;0.40;0.40;;;;;;;19.81;92.23;93892.78;5141759;27;20285;-78
2021/06/24 06:30:09;;;;;;;0.73;0.50;;;;;;;19.69;94.73;93894.81;5136777;27;20200;-78
2021/06/24 06:32:35;;;;;;;0.52;0.45;;;;;;;19.64;96.68;93892.91;5138852;27;20208;-79
2021/06/24 06:35:04;;;;;;;0.60;0.60;;;;;;;18.83;100.00;93899.06;5135635;27;20222;-76
2021/06/24 06:37:30;;;;;;;0.70;0.60;;;;;;;18.97;100.00;93902.13;5141419;27;20203;-77
2021/06/24 06:39:57;;;;;;;0.40;0.40;;;;;;;18.74;100.00;93901.31;5139807;27;20659;-77
2021/06/24 06:42:23;;;;;;;1.67;0.50;;;;;;;18.29;100.00;93899.75;5137008;27;20425;-77
2021/06/24 06:44:50;;;;;;;1.63;0.70;;;;;;;18.07;100.00;93897.09;5140843;27;20204;-80
2021/06/24 06:47:16;;;;;;;2.42;0.90;;;;;;;18.36;100.00;93900.34;5137645;27;20228;-80
2021/06/24 06:49:43;;;;;;;1.52;0.88;;;;;;;18.26;100.00;93894.94;5138106;27;20196;-78
2021/06/24 06:52:10;;;;;;;1.27;0.93;;;;;;;18.25;100.00;93898.63;5142839;27;20213;-79
2021/06/24 06:54:37;;;;;;;4.28;0.93;;;;;;;18.03;100.00;93898.59;5148402;27;20204;-80
2021/06/24 06:57:04;;;;;;;1.00;0.70;;;;;;;17.78;100.00;93897.16;5151861;27;20230;-79
2021/06/24 06:59:31;;;;;;;1.60;0.85;;;;;;;17.88;100.00;93899.19;5153842;27;20197;-79
2021/06/24 07:01:57;;;;;;;3.40;0.70;;;;;;;18.28;100.00;93901.56;5148853;27;20203;-79
2021/06/24 07:04:24;;;;;;;3.25;0.55;;;;;;;18.12;100.00;93900.59;5149340;27;20208;-80
2021/06/24 07:06:50;;;;;;;0.50;0.50;;;;;;;18.64;100.00;93903.88;5147642;27;20224;-80
2021/06/24 07:09:18;;;;;;;3.00;0.68;;;;;;;18.78;100.00;93912.22;5151623;27;20192;-80
2021/06/24 07:11:45;;;;;;;2.03;0.88;;;;;;;19.04;100.00;93910.66;5151148;27;20181;-78
2021/06/24 07:14:12;;;;;;;3.00;0.60;;;;;;;19.02;100.00;93912.78;5150794;27;20201;-79
2021/06/24 07:16:38;;;;;;;0.80;0.60;;;;;;;19.31;100.00;93921.22;5148625;27;20205;-79
2021/06/24 07:19:04;;;;;;;2.53;0.70;;;;;;;18.25;100.00;93925.88;5151746;27;20211;-78
2021/06/24 07:21:32;;;;;;;0.80;0.68;;;;;;;18.09;100.00;93927.50;5149217;28;20192;-79
2021/06/24 07:23:59;;;;;;;1.95;0.70;;;;;;;18.44;100.00;93929.00;5140402;28;21106;-79
2021/06/24 07:26:27;;;;;;;1.75;0.65;;;;;;;18.72;100.00;93929.88;5142629;28;20232;-78
2021/06/24 07:28:53;;;;;;;2.08;0.77;;;;;;;18.75;100.00;93931.22;5144919;28;20224;-78
2021/06/24 07:31:20;;;;;;;1.13;0.80;;;;;;;18.71;100.00;93936.19;5156429;28;20187;-78
2021/06/24 07:33:46;;;;;;;0.70;0.70;;;;;;;18.48;100.00;93935.41;5145904;28;20216;-78
2021/06/24 07:36:13;;;;;;;1.95;1.00;;;;;;;17.97;100.00;93934.72;5139858;28;20196;-78
2021/06/24 07:38:42;;;;;;;2.88;0.90;;;;;;;18.08;100.00;93941.72;5134010;28;20295;-78
2021/06/24 07:41:10;;;;;;;2.50;1.00;;;;;;;18.60;100.00;93951.16;5135140;28;20269;-78
2021/06/24 07:43:38;;;;;;;5.13;1.02;;;;;;;18.97;100.00;93953.19;5138116;28;20217;-78
2021/06/24 07:46:04;;;;;;;1.80;0.90;;;;;;;19.43;100.00;93952.84;5134833;28;20201;-77
2021/06/24 07:48:34;;;;;;;4.30;1.00;;;;;;;19.21;100.00;93955.56;5134825;28;20653;-80
2021/06/24 07:51:00;;;;;;;6.05;1.27;;;;;;;18.99;100.00;93961.69;5133329;28;20201;-78
2021/06/24 07:53:27;;;;;;;2.17;1.10;;;;;;;19.54;100.00;93962.50;5139091;27;20200;-78
2021/06/24 07:55:53;;;;;;;1.23;0.90;;;;;;;19.32;100.00;93962.56;5140861;27;20212;-79
2021/06/24 07:58:20;;;;;;;1.38;1.00;;;;;;;19.62;100.00;93963.06;5148063;27;20192;-80
2021/06/24 08:00:48;;;;;;;1.25;0.95;;;;;;;20.21;98.21;93965.66;5147751;27;20540;-80
2021/06/24 08:03:14;;;;;;;1.60;1.17;;;;;;;19.94;94.98;93966.56;5146178;27;20208;-80
2021/06/24 08:05:43;;;;;;;2.13;1.25;;;;;;;19.99;98.03;93965.00;5146934;27;20264;-79
2021/06/24 08:08:12;;;;;;;2.15;1.10;;;;;;;21.01;93.67;93962.88;5145916;27;20235;-77
2021/06/24 08:10:41;;;;;;;1.83;0.90;;;;;;;21.60;91.90;93960.94;5142555;27;20192;-79
2021/06/24 08:13:10;;;;;;;1.05;0.90;;;;;;;21.31;89.24;93966.69;5138984;27;20226;-79
2021/06/24 08:15:39;;;;;;;1.92;1.08;;;;;;;20.82;91.98;93967.88;5142413;27;20193;-79
2021/06/24 08:18:07;;;;;;;3.30;0.82;;;;;;;20.74;92.50;93962.28;5150761;27;20207;-79
2021/06/24 08:20:33;;;;;;;4.22;1.00;;;;;;;20.69;91.42;93961.19;5147471;27;20655;-78
2021/06/24 08:23:00;;;;;;;1.45;0.90;;;;;;;20.50;88.65;93960.00;5153405;27;20220;-79
2021/06/24 08:25:28;;;;;;;3.22;0.80;;;;;;;20.60;86.62;93960.06;5154512;27;20219;-80
2021/06/24 08:27:55;;;;;;;1.35;0.80;;;;;;;20.84;88.86;93967.63;5158652;27;20224;-79
2021/06/24 08:30:22;;;;;;;1.77;0.88;;;;;;;20.97;86.42;93972.44;5156871;27;20196;-80
2021/06/24 08:32:50;;;;;;;2.05;0.80;;;;;;;21.11;81.86;93972.75;5144565;27;20622;-78
2021/06/24 08:35:20;;;;;;;1.70;0.82;;;;;;;20.41;86.42;93975.59;5141671;27;20180;-77
2021/06/24 08:37:47;;;;;;;2.53;0.60;;;;;;;19.51;92.77;93970.94;5145174;27;20195;-79
2021/06/24 08:40:15;;;;;;;1.70;0.82;;;;;;;19.60;93.55;93972.09;5141175;27;20296;-79
2021/06/24 08:42:42;;;;;;;6.68;1.10;;;;;;;20.05;94.64;93977.22;5157875;27;20667;-81
2021/06/24 08:45:11;;;;;;;2.40;0.90;;;;;;;20.32;91.38;93975.28;5140094;27;20197;-81
2021/06/24 08:47:46;;;;;;;0.70;0.70;;;;;;;20.53;91.37;93978.06;5149493;27;20239;-80
2021/06/24 08:50:14;;;;;;;1.38;0.80;;;;;;;21.33;86.11;93975.19;5154767;27;20200;-80
2021/06/24 08:52:45;;;;;;;3.58;0.85;;;;;;;21.53;85.25;93976.31;5150777;27;20200;-81
2021/06/24 08:55:13;;;;;;;1.33;0.82;;;;;;;21.39;84.69;93968.03;5156440;27;20214;-80
2021/06/24 08:57:42;;;;;;;0.80;0.70;;;;;;;20.85;85.70;93975.31;5147617;27;20274;-80
2021/06/24 09:00:10;;;;;;;3.45;1.13;;;;;;;19.84;93.79;93976.28;5146812;27;20203;-82
2021/06/24 09:02:38;;;;;;;1.80;0.75;;;;;;;19.68;100.00;93975.31;5149847;27;20234;-81
2021/06/24 09:05:06;;;;;;;1.00;0.90;;;;;;;19.68;100.00;93976.09;5155550;27;20196;-82
2021/06/24 09:07:32;;;;;;;1.48;1.05;;;;;;;19.68;97.60;93975.31;5156712;27;20284;-80
2021/06/24 09:10:04;;;;;;;1.98;1.48;;;;;;;19.35;100.00;93974.47;5152165;27;20197;-81
2021/06/24 09:12:31;;;;;;;2.47;1.02;;;;;;;19.53;100.00;93976.78;5143764;27;20197;-77
2021/06/24 09:15:01;;;;;;;1.42;1.13;;;;;;;20.08;93.64;93972.19;5145658;27;20207;-80
2021/06/24 09:17:36;;;;;;;1.98;1.38;;;;;;;20.75;93.63;93975.28;5132940;27;20220;-80
2021/06/24 09:20:05;;;;;;;3.42;1.23;;;;;;;20.72;91.97;93974.97;5139091;27;20235;-80
2021/06/24 09:22:32;;;;;;;3.47;1.55;;;;;;;20.88;95.15;93971.34;5136223;27;20200;-78
2021/06/24 09:25:00;;;;;;;2.42;1.30;;;;;;;21.62;90.54;93972.09;5136355;27;20575;-78
2021/06/24 09:27:31;;;;;;;1.77;1.00;;;;;;;21.13;84.01;93980.47;5135689;27;20232;-77
2021/06/24 09:30:09;;;;;;;0.90;0.88;;;;;;;21.64;89.97;93969.97;5135817;27;20273;-78
2021/06/24 09:32:37;;;;;;;1.40;0.90;;;;;;;21.60;84.10;93980.31;5136090;27;20246;-78
2021/06/24 09:35:05;;;;;;;2.00;1.05;;;;;;;22.06;87.20;93973.44;5135858;27;20675;-78
2021/06/24 09:38:00;;;;;;;1.88;1.10;;;;;;;22.94;81.65;93979.38;5135943;27;20200;-78
2021/06/24 09:40:40;;;;;;;1.20;0.70;;;;;;;22.58;80.19;93982.16;5135542;27;20204;-78
2021/06/24 09:43:09;;;;;;;1.10;0.70;;;;;;;23.18;80.21;93985.69;5135957;27;20650;-78
2021/06/24 09:45:37;;;;;;;4.25;0.60;;;;;;;21.88;72.34;93988.03;5135711;27;20199;-78
2021/06/24 09:48:08;;;;;;;1.25;0.57;;;;;;;20.40;80.51;93991.75;5136962;27;20228;-78
2021/06/24 09:50:34;;;;;;;0.73;0.60;;;;;;;20.32;79.27;93995.72;5136175;27;20201;-78
2021/06/24 09:53:09;;;;;;;1.05;0.60;;;;;;;20.77;84.70;93996.25;5135143;27;20714;-78
2021/06/24 09:55:35;;;;;;;0.60;0.60;;;;;;;21.33;77.10;93996.44;5135073;27;20280;-78
2021/06/24 09:58:13;;;;;;;0.65;0.40;;;;;;;20.67;77.24;93989.84;5135570;27;20205;-77
2021/06/24 10:00:49;;;;;;;0.70;0.50;;;;;;;20.54;77.10;93992.91;5135766;27;20232;-78
2021/06/24 10:03:17;;;;;;;0.88;0.60;;;;;;;20.41;79.69;94002.13;5135267;27;20292;-78
2021/06/24 10:05:44;;;;;;;0.63;0.50;;;;;;;20.54;79.84;93997.44;5135900;27;20203;-78
2021/06/24 10:08:12;;;;;;;1.63;0.30;;;;;;;20.37;78.25;93994.94;5135871;27;20263;-79
2021/06/24 10:10:42;;;;;;;1.88;0.50;;;;;;;20.98;83.79;94000.56;5135458;27;20197;-80
2021/06/24 10:13:12;;;;;;;0.68;0.50;;;;;;;21.61;72.54;93989.88;5135153;27;20201;-79
2021/06/24 10:15:43;;;;;;;0.57;0.57;;;;;;;21.57;73.90;93986.16;5134640;27;20605;-80
2021/06/24 10:18:10;;;;;;;1.15;0.60;;;;;;;21.76;76.21;93981.13;5135215;27;20204;-79
2021/06/24 10:20:37;;;;;;;1.73;0.60;;;;;;;21.75;72.89;93979.53;5134822;27;20204;-78
2021/06/24 10:23:09;;;;;;;1.15;0.55;;;;;;;22.39;77.28;93985.38;5134912;27;20197;-78
2021/06/24 10:25:37;;;;;;;0.50;0.40;;;;;;;22.49;73.14;93982.69;5134656;27;20204;-79
2021/06/24 10:28:07;;;;;;;0.52;0.52;;;;;;;22.21;73.43;93981.38;5134640;27;20561;-78
2021/06/24 10:30:39;;;;;;;1.58;0.50;;;;;;;21.81;73.31;93990.97;5134407;27;20201;-78
2021/06/24 10:33:09;;;;;;;1.77;0.60;;;;;;;21.66;76.37;93983.78;5134519;27;20200;-78
2021/06/24 10:35:37;;;;;;;0.47;0.47;;;;;;;21.81;79.41;93989.09;5134708;27;20204;-77
2021/06/24 10:38:05;;;;;;;2.05;0.50;;;;;;;22.90;73.59;93982.59;5133858;27;20200;-78
2021/06/24 10:40:41;;;;;;;0.82;0.50;;;;;;;23.14;78.76;93981.19;5134416;27;20624;-78
2021/06/24 10:43:11;;;;;;;0.40;0.40;;;;;;;23.23;69.98;93985.66;5134518;27;20204;-79
2021/06/24 10:45:39;;;;;;;0.70;0.50;;;;;;;22.83;73.06;93982.09;5134387;27;20201;-78
2021/06/24 10:48:27;;;;;;;0.70;0.50;;;;;;;23.08;70.06;93985.72;5134417;27;20231;-79
2021/06/24 10:50:58;;;;;;;1.77;0.52;;;;;;;22.81;71.87;93981.53;5134343;27;20200;-80
2021/06/24 10:53:47;;;;;;;0.77;0.50;;;;;;;22.76;73.58;93980.75;5134150;27;20519;-79
2021/06/24 10:56:29;;;;;;;0.70;0.50;;;;;;;22.51;69.99;93977.91;5133960;27;20536;-77
2021/06/24 10:59:00;;;;;;;2.35;0.70;;;;;;;22.54;73.73;93974.69;5133794;27;20196;-79
2021/06/24 11:01:46;;;;;;;0.93;0.50;;;;;;;22.18;72.24;93972.09;5134129;27;20278;-78
2021/06/24 11:04:32;;;;;;;0.50;0.50;;;;;;;22.31;73.29;93968.09;5134330;27;20196;-77
2021/06/24 11:07:00;;;;;;;2.22;0.55;;;;;;;23.65;71.72;93965.69;5134132;27;20207;-77
2021/06/24 11:09:27;;;;;;;0.63;0.50;;;;;;;23.43;73.40;93959.97;5134045;27;20315;-78
2021/06/24 11:11:54;;;;;;;0.70;0.55;;;;;;;23.96;66.26;93960.13;5133941;27;20551;-77
2021/06/24 11:14:56;;;;;;;3.47;0.60;;;;;;;23.38;66.91;93952.81;5133814;27;20216;-78
2021/06/24 11:17:49;;;;;;;1.00;0.60;;;;;;;22.48;70.98;93948.38;5133860;27;20662;-78
2021/06/24 11:20:20;;;;;;;2.08;0.60;;;;;;;21.55;72.83;93940.47;5133895;27;20612;-78
2021/06/24 11:22:52;;;;;;;0.73;0.68;;;;;;;20.84;73.12;93951.69;5133844;28;20207;-78
2021/06/24 11:25:19;;;;;;;1.00;0.60;;;;;;;21.14;72.73;93935.06;5134030;28;20196;-79
2021/06/24 11:27:46;;;;;;;0.57;0.55;;;;;;;21.39;72.17;93928.19;5136057;27;20224;-78
2021/06/24 11:30:14;;;;;;;0.30;0.30;;;;;;;21.98;67.53;93930.38;5138067;27;20204;-77
2021/06/24 11:32:45;;;;;;;0.30;0.30;;;;;;;22.62;64.88;93928.09;5138128;27;20209;-78
2021/06/24 11:35:32;;;;;;;0.60;0.50;;;;;;;22.80;63.96;93931.22;5137839;27;20265;-78